WST702 MYEH-MYNN
Flight info
| Callsign | WST702 |
|---|---|
| Flight time | 0h 21m |
| Altitude | 8000 |
| Route | LENKY2 HEKOP |
| Aircraft | E145/M-SDFGIRW/S |
Departure
| Time | 2026-05-07 02:25 |
|---|---|
| Airport | North Eleuthera Airport (MYEH) |
Arrival
| Time | 2026-05-07 02:46 |
|---|---|
| Airport | Lynden Pindling International Airport (MYNN) |
| Time | Latitude | Longitude | Altitude | Speed | Heading |
|---|---|---|---|---|---|
| 2026-05-07 02:16 | 25.47639 | -76.68194 | 25 ft | 0 kts | 66° |
| 2026-05-07 02:21 | 25.47643 | -76.68184 | 25 ft | 5 kts | 69° |
| 2026-05-07 02:22 | 25.47624 | -76.68153 | 25 ft | 6 kts | 153° |
| 2026-05-07 02:22 | 25.47574 | -76.68147 | 25 ft | 8 kts | 200° |
| 2026-05-07 02:22 | 25.47532 | -76.68208 | 23 ft | 11 kts | 245° |
| 2026-05-07 02:22 | 25.47496 | -76.68302 | 22 ft | 14 kts | 247° |
| 2026-05-07 02:23 | 25.47453 | -76.68414 | 22 ft | 16 kts | 248° |
| 2026-05-07 02:23 | 25.47409 | -76.68542 | 22 ft | 19 kts | 249° |
| 2026-05-07 02:23 | 25.47350 | -76.68707 | 22 ft | 27 kts | 247° |
| 2026-05-07 02:23 | 25.47302 | -76.68861 | 22 ft | 20 kts | 256° |
| 2026-05-07 02:24 | 25.47275 | -76.68930 | 23 ft | 4 kts | 128° |
| 2026-05-07 02:24 | 25.47346 | -76.68730 | 22 ft | 65 kts | 69° |
| 2026-05-07 02:24 | 25.47603 | -76.68014 | 28 ft | 129 kts | 69° |
| 2026-05-07 02:24 | 25.47964 | -76.67014 | 369 ft | 147 kts | 70° |
| 2026-05-07 02:25 | 25.48337 | -76.65926 | 931 ft | 159 kts | 71° |
| 2026-05-07 02:25 | 25.48776 | -76.64778 | 1568 ft | 167 kts | 69° |
| 2026-05-07 02:25 | 25.49216 | -76.63577 | 2230 ft | 173 kts | 69° |
| 2026-05-07 02:25 | 25.49660 | -76.62354 | 2874 ft | 172 kts | 69° |
| 2026-05-07 02:26 | 25.50233 | -76.61232 | 3504 ft | 169 kts | 40° |
| 2026-05-07 02:26 | 25.51303 | -76.60827 | 4043 ft | 170 kts | 355° |
| 2026-05-07 02:26 | 25.52346 | -76.61401 | 4493 ft | 178 kts | 309° |
| 2026-05-07 02:26 | 25.52747 | -76.62701 | 4961 ft | 185 kts | 274° |
| 2026-05-07 02:27 | 25.52808 | -76.64139 | 5394 ft | 194 kts | 273° |
| 2026-05-07 02:27 | 25.52858 | -76.65666 | 5804 ft | 206 kts | 272° |
| 2026-05-07 02:27 | 25.52902 | -76.67323 | 6205 ft | 223 kts | 272° |
| 2026-05-07 02:27 | 25.52945 | -76.69098 | 6637 ft | 239 kts | 272° |
| 2026-05-07 02:28 | 25.52989 | -76.70984 | 7063 ft | 255 kts | 272° |
| 2026-05-07 02:28 | 25.53035 | -76.72952 | 7475 ft | 261 kts | 272° |
| 2026-05-07 02:28 | 25.53081 | -76.74975 | 7876 ft | 266 kts | 272° |
| 2026-05-07 02:28 | 25.53130 | -76.77098 | 7997 ft | 283 kts | 272° |
| 2026-05-07 02:29 | 25.53179 | -76.79263 | 7997 ft | 284 kts | 272° |
| 2026-05-07 02:29 | 25.53229 | -76.81453 | 7996 ft | 283 kts | 272° |
| 2026-05-07 02:29 | 25.53277 | -76.83615 | 7996 ft | 283 kts | 272° |
| 2026-05-07 02:29 | 25.53327 | -76.85815 | 7997 ft | 282 kts | 273° |
| 2026-05-07 02:30 | 25.53375 | -76.87977 | 7997 ft | 282 kts | 272° |
| 2026-05-07 02:30 | 25.53422 | -76.90137 | 7995 ft | 281 kts | 272° |
| 2026-05-07 02:30 | 25.53094 | -76.92258 | 8000 ft | 282 kts | 248° |
| 2026-05-07 02:30 | 25.52187 | -76.94167 | 8002 ft | 283 kts | 243° |
| 2026-05-07 02:31 | 25.51258 | -76.96085 | 7999 ft | 283 kts | 243° |
| 2026-05-07 02:31 | 25.50320 | -76.98018 | 7962 ft | 284 kts | 243° |
| 2026-05-07 02:31 | 25.49393 | -76.99925 | 7951 ft | 284 kts | 243° |
| 2026-05-07 02:31 | 25.48443 | -77.01878 | 7950 ft | 284 kts | 243° |
| 2026-05-07 02:32 | 25.47520 | -77.03779 | 7952 ft | 284 kts | 243° |
| 2026-05-07 02:32 | 25.46580 | -77.05710 | 7952 ft | 284 kts | 243° |
| 2026-05-07 02:32 | 25.45648 | -77.07625 | 7949 ft | 278 kts | 243° |
| 2026-05-07 02:32 | 25.44755 | -77.09459 | 7941 ft | 264 kts | 243° |
| 2026-05-07 02:33 | 25.43901 | -77.11213 | 7943 ft | 253 kts | 243° |
| 2026-05-07 02:33 | 25.43083 | -77.12891 | 7867 ft | 248 kts | 243° |
| 2026-05-07 02:33 | 25.42257 | -77.14585 | 7621 ft | 250 kts | 243° |
| 2026-05-07 02:33 | 25.41430 | -77.16280 | 7384 ft | 251 kts | 243° |
| 2026-05-07 02:34 | 25.40602 | -77.17979 | 7148 ft | 251 kts | 243° |
| 2026-05-07 02:34 | 25.39778 | -77.19667 | 6912 ft | 252 kts | 243° |
| 2026-05-07 02:34 | 25.38939 | -77.21386 | 6674 ft | 251 kts | 243° |
| 2026-05-07 02:34 | 25.38118 | -77.23068 | 6438 ft | 251 kts | 243° |
| 2026-05-07 02:35 | 25.37288 | -77.24767 | 6198 ft | 250 kts | 243° |
| 2026-05-07 02:35 | 25.36453 | -77.26475 | 5953 ft | 250 kts | 243° |
| 2026-05-07 02:35 | 25.35629 | -77.28161 | 5712 ft | 249 kts | 242° |
| 2026-05-07 02:35 | 25.34813 | -77.29832 | 5473 ft | 248 kts | 243° |
| 2026-05-07 02:36 | 25.34065 | -77.31536 | 5233 ft | 246 kts | 245° |
| 2026-05-07 02:36 | 25.33329 | -77.33224 | 4994 ft | 245 kts | 245° |
| 2026-05-07 02:36 | 25.32584 | -77.34933 | 4751 ft | 244 kts | 245° |
| 2026-05-07 02:36 | 25.31854 | -77.36605 | 4512 ft | 243 kts | 245° |
| 2026-05-07 02:37 | 25.31115 | -77.38297 | 4269 ft | 243 kts | 245° |
| 2026-05-07 02:37 | 25.30391 | -77.39957 | 4030 ft | 242 kts | 245° |
| 2026-05-07 02:37 | 25.29650 | -77.41652 | 3787 ft | 242 kts | 245° |
| 2026-05-07 02:37 | 25.28922 | -77.43317 | 3546 ft | 241 kts | 245° |
| 2026-05-07 02:38 | 25.28186 | -77.45001 | 3303 ft | 241 kts | 245° |
| 2026-05-07 02:38 | 25.27460 | -77.46661 | 3066 ft | 241 kts | 245° |
| 2026-05-07 02:38 | 25.26735 | -77.48317 | 2827 ft | 241 kts | 244° |
| 2026-05-07 02:38 | 25.25982 | -77.50037 | 2590 ft | 249 kts | 244° |
| 2026-05-07 02:39 | 25.25228 | -77.51760 | 2339 ft | 249 kts | 244° |
| 2026-05-07 02:39 | 25.24475 | -77.53478 | 2096 ft | 249 kts | 244° |
| 2026-05-07 02:39 | 25.23712 | -77.55176 | 1857 ft | 248 kts | 239° |
| 2026-05-07 02:39 | 25.22755 | -77.56771 | 1678 ft | 244 kts | 236° |
| 2026-05-07 02:40 | 25.21825 | -77.58298 | 1656 ft | 235 kts | 236° |
| 2026-05-07 02:40 | 25.20938 | -77.59757 | 1654 ft | 225 kts | 236° |
| 2026-05-07 02:40 | 25.19923 | -77.60977 | 1656 ft | 206 kts | 207° |
| 2026-05-07 02:40 | 25.18687 | -77.61219 | 1683 ft | 160 kts | 166° |
| 2026-05-07 02:41 | 25.17721 | -77.60854 | 1625 ft | 136 kts | 150° |
| 2026-05-07 02:41 | 25.16914 | -77.60396 | 1612 ft | 131 kts | 149° |
| 2026-05-07 02:41 | 25.16212 | -77.59750 | 1661 ft | 135 kts | 131° |
| 2026-05-07 02:41 | 25.15525 | -77.58980 | 1667 ft | 142 kts | 133° |
| 2026-05-07 02:42 | 25.14821 | -77.58207 | 1662 ft | 144 kts | 132° |
| 2026-05-07 02:42 | 25.14118 | -77.57432 | 1654 ft | 140 kts | 132° |
| 2026-05-07 02:42 | 25.13427 | -77.56667 | 1654 ft | 138 kts | 133° |
| 2026-05-07 02:42 | 25.12758 | -77.55925 | 1659 ft | 136 kts | 133° |
| 2026-05-07 02:43 | 25.12093 | -77.55190 | 1661 ft | 135 kts | 132° |
| 2026-05-07 02:43 | 25.11433 | -77.54459 | 1663 ft | 135 kts | 132° |
| 2026-05-07 02:43 | 25.10723 | -77.53668 | 1526 ft | 152 kts | 133° |
| 2026-05-07 02:43 | 25.09944 | -77.52808 | 1333 ft | 161 kts | 133° |
| 2026-05-07 02:44 | 25.09200 | -77.51989 | 1113 ft | 141 kts | 133° |
| 2026-05-07 02:44 | 25.08536 | -77.51254 | 941 ft | 137 kts | 133° |
| 2026-05-07 02:44 | 25.07824 | -77.50464 | 771 ft | 154 kts | 134° |
| 2026-05-07 02:44 | 25.07073 | -77.49638 | 564 ft | 148 kts | 134° |
| 2026-05-07 02:45 | 25.06329 | -77.48834 | 383 ft | 153 kts | 134° |
| 2026-05-07 02:45 | 25.05575 | -77.48010 | 189 ft | 151 kts | 134° |
| 2026-05-07 02:45 | 25.04844 | -77.47201 | 41 ft | 140 kts | 133° |
| 2026-05-07 02:45 | 25.04222 | -77.46509 | 22 ft | 112 kts | 135° |
| 2026-05-07 02:46 | 25.03886 | -77.46127 | 24 ft | 44 kts | 132° |
| 2026-05-07 02:46 | 25.03766 | -77.45936 | 25 ft | 17 kts | 63° |
| 2026-05-07 02:46 | 25.03860 | -77.45853 | 25 ft | 17 kts | 4° |
| 2026-05-07 02:46 | 25.03944 | -77.45937 | 24 ft | 18 kts | 306° |
| 2026-05-07 02:47 | 25.04040 | -77.46054 | 22 ft | 22 kts | 316° |
| 2026-05-07 02:47 | 25.04159 | -77.46175 | 23 ft | 23 kts | 315° |
| 2026-05-07 02:47 | 25.04273 | -77.46302 | 26 ft | 23 kts | 315° |
| 2026-05-07 02:47 | 25.04390 | -77.46429 | 26 ft | 24 kts | 313° |
| 2026-05-07 02:48 | 25.04510 | -77.46559 | 25 ft | 20 kts | 320° |
| 2026-05-07 02:48 | 25.04612 | -77.46677 | 24 ft | 18 kts | 313° |
| 2026-05-07 02:48 | 25.04709 | -77.46734 | 23 ft | 16 kts | 29° |
| 2026-05-07 02:48 | 25.04791 | -77.46651 | 25 ft | 13 kts | 44° |
| 2026-05-07 02:49 | 25.04828 | -77.46594 | 28 ft | 5 kts | 59° |
| 2026-05-07 02:49 | 25.04838 | -77.46584 | 28 ft | 0 kts | 39° |